createdAt,value
2018-02-22T00:01:38.946Z,-2.52
2018-02-22T00:04:07.773Z,-2.59
2018-02-22T00:06:36.426Z,-2.56
2018-02-22T00:09:05.474Z,-2.62
2018-02-22T00:11:34.494Z,-2.62
2018-02-22T00:14:03.766Z,-2.65
2018-02-22T00:16:37.468Z,-2.62
2018-02-22T00:19:06.453Z,-2.59
2018-02-22T00:21:35.274Z,-2.65
2018-02-22T00:24:04.083Z,-2.74
2018-02-22T00:26:33.138Z,-2.71
2018-02-22T00:29:02.576Z,-2.78
2018-02-22T00:31:31.623Z,-2.83
2018-02-22T00:34:01.391Z,-2.80
2018-02-22T00:36:31.553Z,-2.82
2018-02-22T00:39:00.829Z,-2.87
2018-02-22T00:41:29.348Z,-2.88
2018-02-22T00:43:58.316Z,-2.87
2018-02-22T00:46:27.219Z,-2.92
2018-02-22T00:48:56.455Z,-2.86
2018-02-22T00:51:25.499Z,-2.91
2018-02-22T00:53:54.772Z,-2.98
2018-02-22T00:56:24.110Z,-2.97
2018-02-22T00:58:58.799Z,-2.91
2018-02-22T01:01:27.884Z,-2.94
2018-02-22T01:03:57.067Z,-2.96
2018-02-22T01:06:26.214Z,-2.98
2018-02-22T01:08:55.528Z,-3.01
2018-02-22T01:11:24.711Z,-3.06
2018-02-22T01:13:53.824Z,-2.99
2018-02-22T01:16:22.910Z,-2.92
2018-02-22T01:18:51.932Z,-2.90
2018-02-22T01:21:20.838Z,-2.97
2018-02-22T01:23:49.890Z,-2.90
2018-02-22T01:26:18.773Z,-2.92
2018-02-22T01:28:47.747Z,-2.97
2018-02-22T01:31:16.684Z,-2.96
2018-02-22T01:33:45.870Z,-2.96
2018-02-22T01:36:14.480Z,-2.95
2018-02-22T01:38:43.262Z,-3.06
2018-02-22T01:41:12.205Z,-3.10
2018-02-22T01:43:41.316Z,-3.04
2018-02-22T01:46:10.198Z,-3.09
2018-02-22T01:48:39.573Z,-3.08
2018-02-22T01:51:08.693Z,-3.16
2018-02-22T01:53:37.704Z,-3.21
2018-02-22T01:56:06.983Z,-3.17
2018-02-22T01:58:36.143Z,-3.17
2018-02-22T02:01:05.151Z,-3.08
2018-02-22T02:43:14.762Z,-3.16
2018-02-22T02:45:43.380Z,-3.16
2018-02-22T02:48:12.608Z,-3.19
2018-02-22T02:50:41.455Z,-3.15
2018-02-22T02:53:09.905Z,-3.25
2018-02-22T03:38:17.737Z,-3.61
2018-02-22T03:40:46.855Z,-3.58
2018-02-22T03:43:15.973Z,-3.57
2018-02-22T03:45:46.180Z,-3.57
2018-02-22T03:48:15.361Z,-3.61
2018-02-22T03:50:44.481Z,-3.63
2018-02-22T03:53:13.067Z,-3.65
2018-02-22T04:13:41.581Z,-3.77
2018-02-22T04:16:10.502Z,-3.74
2018-02-22T04:18:40.617Z,-3.81
2018-02-22T04:21:09.866Z,-3.86
2018-02-22T04:23:38.668Z,-3.85
2018-02-22T04:26:14.267Z,-3.87
2018-02-22T04:28:43.029Z,-3.73
2018-02-22T04:31:11.930Z,-3.80
2018-02-22T04:33:40.808Z,-3.83
2018-02-22T04:36:09.931Z,-3.82
2018-02-22T04:38:38.594Z,-3.77
2018-02-22T04:41:08.159Z,-3.78
2018-02-22T04:43:36.945Z,-3.77
2018-02-22T04:46:05.679Z,-3.70
2018-02-22T04:48:34.530Z,-3.80
2018-02-22T04:51:04.897Z,-3.82
2018-02-22T04:53:33.856Z,-3.77
2018-02-22T04:56:02.500Z,-3.75
2018-02-22T04:58:30.942Z,-3.72
2018-02-22T05:00:59.323Z,-3.65
2018-02-22T05:03:27.736Z,-3.68
2018-02-22T05:05:56.331Z,-3.64
2018-02-22T05:08:25.353Z,-3.67
2018-02-22T05:10:53.972Z,-3.61
2018-02-22T05:13:22.475Z,-3.60
2018-02-22T05:15:50.542Z,-3.56
2018-02-22T05:18:18.276Z,-3.55
2018-02-22T05:20:46.175Z,-3.47
2018-02-22T05:23:14.002Z,-3.38
2018-02-22T05:25:42.315Z,-3.37
2018-02-22T05:28:10.496Z,-3.42
2018-02-22T05:30:38.905Z,-3.28
2018-02-22T05:33:06.725Z,-3.27
2018-02-22T05:35:34.465Z,-3.20
2018-02-22T05:38:02.507Z,-3.17
2018-02-22T05:40:30.534Z,-3.12
2018-02-22T05:42:58.085Z,-3.05
2018-02-22T05:45:25.627Z,-2.98
2018-02-22T05:47:53.412Z,-2.91
2018-02-22T05:50:20.994Z,-2.84
2018-02-22T05:52:48.816Z,-2.77
2018-02-22T05:55:16.469Z,-2.66
2018-02-22T05:57:44.113Z,-2.61
2018-02-22T06:00:11.955Z,-2.54
2018-02-22T06:02:39.680Z,-2.46
2018-02-22T06:05:07.314Z,-2.44
2018-02-22T06:07:34.889Z,-2.41
2018-02-22T06:10:02.545Z,-2.43
2018-02-22T06:12:30.243Z,-2.43
2018-02-22T06:14:57.706Z,-2.44
2018-02-22T06:17:25.517Z,-2.35
2018-02-22T06:19:53.353Z,-2.39
2018-02-22T06:22:20.921Z,-2.33
2018-02-22T06:24:48.372Z,-2.33
2018-02-22T06:27:15.857Z,-2.24
2018-02-22T06:29:43.361Z,-2.29
2018-02-22T06:32:11.320Z,-2.24
2018-02-22T06:34:38.818Z,-2.17
2018-02-22T06:37:06.491Z,-2.15
2018-02-22T06:39:34.389Z,-2.10
2018-02-22T06:51:00.183Z,-1.90
2018-02-22T06:56:30.859Z,-1.82
2018-02-22T06:58:59.012Z,-1.78
2018-02-22T07:01:26.623Z,-1.77
2018-02-22T07:03:54.109Z,-1.71
2018-02-22T07:06:21.559Z,-1.66
2018-02-22T07:08:49.108Z,-1.54
2018-02-22T07:11:16.569Z,-1.44
2018-02-22T07:13:44.024Z,-1.47
2018-02-22T07:16:11.487Z,-1.50
2018-02-22T07:18:38.926Z,-1.45
2018-02-22T07:21:06.383Z,-1.33
2018-02-22T07:23:33.824Z,-1.21
2018-02-22T07:26:01.291Z,-1.19
2018-02-22T07:28:28.972Z,-1.17
2018-02-22T07:30:56.605Z,-1.12
2018-02-22T07:33:24.077Z,-0.95
2018-02-22T07:35:51.518Z,-0.92
2018-02-22T07:38:18.983Z,-0.80
2018-02-22T07:40:46.448Z,-0.67
2018-02-22T07:43:13.921Z,-0.56
2018-02-22T07:45:41.410Z,-0.56
2018-02-22T07:48:08.882Z,-0.42
2018-02-22T07:50:36.372Z,-0.33
2018-02-22T07:53:03.832Z,-0.30
2018-02-22T07:55:31.275Z,-0.26
2018-02-22T07:57:58.841Z,-0.18
2018-02-22T08:00:26.315Z,-0.05
2018-02-22T08:02:53.793Z,-0.13
2018-02-22T08:05:21.267Z,0.07
2018-02-22T08:07:48.753Z,0.07
2018-02-22T08:10:16.258Z,0.24
2018-02-22T08:12:43.735Z,0.40
2018-02-22T08:15:11.212Z,0.48
2018-02-22T08:17:38.716Z,0.37
2018-02-22T08:20:06.172Z,0.39
2018-02-22T08:22:33.630Z,0.16
2018-02-22T08:25:01.139Z,0.29
2018-02-22T08:27:28.586Z,0.25
2018-02-22T08:29:56.045Z,0.27
2018-02-22T08:32:23.502Z,0.46
2018-02-22T08:34:51.048Z,0.33
2018-02-22T08:37:18.496Z,0.47
2018-02-22T08:39:46.032Z,0.44
2018-02-22T08:42:13.492Z,0.65
2018-02-22T08:44:40.975Z,0.66
2018-02-22T08:47:08.441Z,0.63
2018-02-22T08:49:36.041Z,0.49
2018-02-22T08:52:03.531Z,0.54
2018-02-22T08:54:31.017Z,0.67
2018-02-22T08:56:58.496Z,0.73
2018-02-22T08:59:26.034Z,0.78
2018-02-22T09:01:53.503Z,0.82
2018-02-22T09:04:23.601Z,0.67
2018-02-22T09:06:51.171Z,0.38
2018-02-22T09:09:18.731Z,0.23
2018-02-22T09:11:46.201Z,0.13
2018-02-22T09:14:13.655Z,-0.02
2018-02-22T09:16:41.141Z,-0.19
2018-02-22T09:19:08.676Z,-0.10
2018-02-22T09:21:36.126Z,-0.12
2018-02-22T09:24:03.627Z,-0.05
2018-02-22T09:26:31.087Z,0.31
2018-02-22T09:28:58.547Z,0.47
2018-02-22T09:31:26.066Z,0.63
2018-02-22T09:33:53.537Z,0.73
2018-02-22T09:36:22.127Z,1.10
2018-02-22T09:38:49.708Z,1.05
2018-02-22T09:41:17.185Z,1.27
2018-02-22T09:43:44.746Z,1.69
2018-02-22T09:46:12.236Z,1.64
2018-02-22T09:48:39.916Z,1.69
2018-02-22T09:51:07.430Z,1.91
2018-02-22T09:53:35.032Z,2.05
2018-02-22T09:56:02.526Z,1.92
2018-02-22T09:58:30.082Z,2.12
2018-02-22T10:00:57.623Z,2.27
2018-02-22T10:03:25.078Z,2.19
2018-02-22T10:05:52.572Z,2.17
2018-02-22T10:08:20.118Z,2.48
2018-02-22T10:10:47.584Z,2.56
2018-02-22T10:13:15.212Z,2.68
2018-02-22T10:15:42.696Z,3.03
2018-02-22T10:18:10.172Z,3.25
2018-02-22T10:20:37.762Z,3.20
2018-02-22T10:23:05.229Z,3.48
2018-02-22T10:25:32.706Z,3.40
2018-02-22T10:28:00.174Z,3.33
2018-02-22T10:30:28.010Z,3.28
2018-02-22T10:32:56.658Z,3.37
2018-02-22T10:35:24.308Z,3.27
2018-02-22T10:37:51.790Z,3.53
2018-02-22T10:40:19.388Z,3.41
2018-02-22T10:42:46.957Z,3.88
2018-02-22T10:45:14.440Z,4.17
2018-02-22T10:47:41.962Z,4.26
2018-02-22T10:50:09.440Z,4.32
2018-02-22T10:52:37.003Z,4.25
2018-02-22T10:55:04.648Z,4.17
2018-02-22T10:57:32.133Z,3.90
2018-02-22T10:59:59.614Z,3.46
2018-02-22T11:02:32.708Z,3.77
2018-02-22T11:07:53.096Z,4.59
2018-02-22T11:10:20.669Z,4.45
2018-02-22T11:12:48.127Z,4.45
2018-02-22T11:15:15.592Z,4.81
2018-02-22T11:17:43.041Z,4.94
2018-02-22T11:20:10.584Z,5.33
2018-02-22T11:22:38.052Z,5.62
2018-02-22T11:25:05.498Z,5.85
2018-02-22T11:27:33.078Z,5.59
2018-02-22T11:30:00.717Z,5.53
2018-02-22T11:32:28.177Z,5.14
2018-02-22T11:34:55.710Z,5.50
2018-02-22T11:37:23.199Z,5.60
2018-02-22T11:39:50.726Z,5.45
2018-02-22T11:42:18.213Z,6.03
2018-02-22T11:44:45.684Z,6.12
2018-02-22T11:47:15.994Z,6.23
2018-02-22T11:49:43.459Z,6.44
2018-02-22T11:52:10.953Z,6.75
2018-02-22T11:54:38.488Z,6.92
2018-02-22T11:57:05.965Z,7.35
2018-02-22T11:59:34.630Z,7.34
2018-02-22T12:02:02.135Z,7.57
2018-02-22T12:04:29.597Z,7.72
2018-02-22T12:06:57.149Z,8.24
2018-02-22T12:09:25.635Z,8.03
2018-02-22T12:11:53.116Z,8.71
2018-02-22T12:14:20.597Z,9.24
2018-02-22T12:16:48.063Z,9.05
2018-02-22T12:19:15.531Z,9.09
2018-02-22T12:21:43.037Z,8.93
2018-02-22T12:24:10.528Z,9.07
2018-02-22T12:26:38.009Z,9.40
2018-02-22T12:29:05.473Z,9.77
2018-02-22T12:31:32.929Z,10.70
2018-02-22T12:34:00.487Z,11.40
2018-02-22T12:36:28.039Z,12.46
2018-02-22T12:38:55.563Z,12.71
2018-02-22T12:41:23.044Z,13.20
2018-02-22T12:43:50.514Z,14.46
2018-02-22T12:46:17.970Z,16.15
2018-02-22T12:48:45.443Z,17.61
2018-02-22T12:51:12.915Z,18.75
2018-02-22T12:53:40.456Z,17.92
2018-02-22T12:56:07.916Z,19.13
2018-02-22T12:58:35.411Z,19.18
2018-02-22T13:01:02.954Z,19.03
2018-02-22T13:03:30.423Z,19.93
2018-02-22T13:05:57.871Z,20.18
2018-02-22T13:08:25.318Z,19.19
2018-02-22T13:10:52.781Z,19.52
2018-02-22T13:13:20.235Z,19.25
2018-02-22T13:15:47.698Z,18.85
2018-02-22T13:18:15.215Z,16.76
2018-02-22T13:20:42.839Z,13.94
2018-02-22T13:23:10.437Z,14.46
2018-02-22T13:25:37.902Z,13.27
2018-02-22T13:28:05.468Z,13.45
2018-02-22T13:30:32.922Z,14.98
2018-02-22T13:33:12.056Z,16.25
2018-02-22T13:35:39.568Z,17.89
2018-02-22T13:38:18.639Z,17.41
2018-02-22T13:40:46.092Z,18.63
2018-02-22T13:43:13.552Z,19.54
2018-02-22T13:45:41.233Z,18.16
2018-02-22T13:48:08.700Z,18.53
2018-02-22T13:50:47.991Z,18.30
2018-02-22T13:53:15.471Z,18.08
2018-02-22T13:55:42.966Z,17.97
2018-02-22T13:58:10.470Z,18.41
2018-02-22T14:00:49.552Z,20.09
2018-02-22T14:03:17.055Z,20.28
2018-02-22T14:05:44.569Z,19.29
2018-02-22T14:08:23.568Z,19.78
2018-02-22T14:10:51.045Z,19.27
2018-02-22T14:13:18.505Z,17.12
2018-02-22T14:15:46.046Z,18.43
2018-02-22T14:18:13.524Z,18.91
2018-02-22T14:20:41.032Z,18.41
2018-02-22T14:23:08.490Z,19.27
2018-02-22T14:25:35.966Z,20.47
2018-02-22T14:28:03.440Z,19.68
2018-02-22T14:30:30.916Z,17.44
2018-02-22T14:32:58.452Z,18.04
2018-02-22T14:35:25.912Z,17.86
2018-02-22T14:37:53.393Z,18.40
2018-02-22T14:40:20.847Z,19.16
2018-02-22T14:42:48.363Z,18.54
2018-02-22T14:45:15.807Z,19.01
2018-02-22T14:47:43.321Z,19.55
2018-02-22T14:50:10.784Z,19.14
2018-02-22T14:52:38.323Z,19.04
2018-02-22T14:55:05.802Z,19.09
2018-02-22T14:57:33.263Z,17.10
2018-02-22T15:00:00.741Z,15.79
2018-02-22T15:02:28.266Z,14.63
2018-02-22T15:04:55.710Z,12.25
2018-02-22T15:07:23.274Z,10.51
2018-02-22T15:09:50.749Z,9.62
2018-02-22T15:12:18.258Z,8.83
2018-02-22T15:14:45.784Z,8.50
2018-02-22T15:17:13.242Z,8.64
2018-02-22T15:19:40.713Z,8.60
2018-02-22T15:22:08.175Z,7.57
2018-02-22T15:24:35.655Z,6.80
2018-02-22T15:27:03.134Z,6.82
2018-02-22T15:29:30.652Z,6.09
2018-02-22T15:31:58.167Z,5.62
2018-02-22T15:34:25.631Z,5.69
2018-02-22T15:36:53.070Z,4.98
2018-02-22T15:39:20.555Z,4.94
2018-02-22T15:41:48.096Z,4.93
2018-02-22T15:44:15.549Z,5.47
2018-02-22T15:46:43.193Z,5.04
2018-02-22T15:49:10.764Z,5.14
2018-02-22T15:51:38.215Z,4.99
2018-02-22T15:54:05.660Z,5.08
2018-02-22T15:56:33.120Z,5.10
2018-02-22T15:59:00.721Z,5.23
2018-02-22T16:01:28.874Z,5.10
2018-02-22T16:06:35.747Z,4.46
2018-02-22T16:09:03.375Z,4.37
2018-02-22T16:11:31.960Z,4.15
2018-02-22T16:13:59.450Z,3.88
2018-02-22T16:16:29.403Z,3.64
2018-02-22T16:18:56.871Z,3.59
2018-02-22T16:21:27.225Z,3.37
2018-02-22T16:23:54.731Z,3.26
2018-02-22T16:26:26.678Z,3.00
2018-02-22T16:28:54.122Z,2.82
2018-02-22T16:31:21.609Z,2.61
2018-02-22T16:33:49.062Z,2.60
2018-02-22T16:36:17.233Z,2.46
2018-02-22T16:38:44.718Z,2.43
2018-02-22T16:41:12.426Z,2.34
2018-02-22T16:43:39.900Z,2.21
2018-02-22T16:46:07.363Z,2.04
2018-02-22T16:48:34.819Z,1.86
2018-02-22T16:51:02.306Z,1.76
2018-02-22T16:53:29.764Z,1.66
2018-02-22T16:55:57.245Z,1.52
2018-02-22T16:58:24.758Z,1.41
2018-02-22T17:00:52.208Z,1.37
2018-02-22T17:03:19.670Z,1.36
2018-02-22T17:05:47.228Z,1.37
2018-02-22T17:08:14.774Z,1.38
2018-02-22T17:10:43.079Z,1.43
2018-02-22T17:13:10.594Z,1.49
2018-02-22T17:15:38.113Z,1.51
2018-02-22T17:18:05.659Z,1.48
2018-02-22T17:20:33.231Z,1.46
2018-02-22T17:23:00.703Z,1.35
2018-02-22T17:25:27.596Z,1.29
2018-02-22T17:28:00.667Z,1.26
2018-02-22T17:30:33.590Z,1.29
2018-02-22T17:33:01.105Z,1.30
2018-02-22T17:38:41.573Z,1.39
2018-02-22T17:41:11.481Z,1.40
2018-02-22T17:43:38.963Z,1.45
2018-02-22T17:46:06.432Z,1.46
2018-02-22T17:48:34.042Z,1.43
2018-02-22T17:51:01.514Z,1.48
2018-02-22T17:53:29.015Z,1.47
2018-02-22T17:55:56.475Z,1.57
2018-02-22T17:58:23.998Z,1.59
2018-02-22T18:00:51.492Z,1.56
2018-02-22T18:03:18.939Z,1.64
2018-02-22T18:05:46.490Z,1.69
2018-02-22T18:08:13.952Z,1.70
2018-02-22T18:10:41.398Z,1.70
2018-02-22T18:13:08.875Z,1.69
2018-02-22T18:15:36.328Z,1.80
2018-02-22T18:18:03.792Z,1.76
2018-02-22T18:20:31.289Z,1.81
2018-02-22T18:22:58.762Z,1.71
2018-02-22T18:25:26.198Z,1.82
2018-02-22T18:27:53.647Z,1.78
2018-02-22T18:30:21.186Z,1.79
2018-02-22T18:32:48.689Z,1.76
2018-02-22T18:35:16.230Z,1.76
2018-02-22T18:37:49.455Z,1.80
2018-02-22T18:40:22.458Z,1.79
2018-02-22T18:42:49.897Z,1.72
2018-02-22T18:45:17.343Z,1.76
2018-02-22T18:47:44.821Z,1.74
2018-02-22T18:50:12.278Z,1.81
2018-02-22T18:52:39.790Z,1.70
2018-02-22T18:55:07.367Z,1.74
2018-02-22T18:57:34.854Z,1.79
2018-02-22T19:00:02.540Z,1.70
2018-02-22T19:02:30.003Z,1.74
2018-02-22T19:04:57.457Z,1.65
2018-02-22T19:07:24.907Z,1.63
2018-02-22T19:09:52.519Z,1.61
2018-02-22T19:12:19.981Z,1.65
2018-02-22T19:14:47.489Z,1.55
2018-02-22T19:17:14.943Z,1.59
2018-02-22T19:19:42.382Z,1.59
2018-02-22T19:22:13.433Z,1.55
2018-02-22T19:24:41.092Z,1.53
2018-02-22T19:27:08.561Z,1.58
2018-02-22T19:29:36.030Z,1.51
2018-02-22T19:32:03.496Z,1.55
2018-02-22T19:34:30.968Z,1.49
2018-02-22T19:36:58.460Z,1.48
2018-02-22T19:39:25.994Z,1.48
2018-02-22T19:41:53.438Z,1.47
2018-02-22T19:44:21.042Z,1.48
2018-02-22T19:46:48.558Z,1.49
2018-02-22T19:49:15.996Z,1.45
2018-02-22T19:51:43.549Z,1.43
2018-02-22T19:54:10.998Z,1.41
2018-02-22T19:56:38.470Z,1.39
2018-02-22T19:59:05.926Z,1.38
2018-02-22T20:01:33.379Z,1.39
2018-02-22T20:04:00.903Z,1.40
2018-02-22T20:06:28.365Z,1.33
2018-02-22T20:08:55.815Z,1.29
2018-02-22T20:11:23.292Z,1.27
2018-02-22T20:13:50.770Z,1.35
2018-02-22T20:16:18.294Z,1.33
2018-02-22T20:18:45.807Z,1.37
2018-02-22T20:21:13.321Z,1.35
2018-02-22T20:23:40.757Z,1.33
2018-02-22T20:26:08.236Z,1.34
2018-02-22T20:28:35.700Z,1.32
2018-02-22T20:31:03.287Z,1.24
2018-02-22T20:33:32.506Z,1.27
2018-02-22T20:36:00.015Z,1.22
2018-02-22T20:38:27.502Z,1.27
2018-02-22T20:40:55.013Z,1.28
2018-02-22T20:43:22.493Z,1.29
2018-02-22T20:45:49.970Z,1.18
2018-02-22T20:48:17.487Z,1.23
2018-02-22T20:50:44.998Z,1.15
2018-02-22T20:53:17.985Z,1.19
2018-02-22T20:55:45.458Z,1.14
2018-02-22T20:58:12.964Z,1.22
2018-02-22T21:00:40.422Z,1.19
2018-02-22T21:03:08.069Z,1.18
2018-02-22T21:05:35.515Z,1.22
2018-02-22T21:08:02.986Z,1.17
2018-02-22T21:10:30.433Z,1.26
2018-02-22T21:12:58.072Z,1.24
2018-02-22T21:15:25.534Z,1.21
2018-02-22T21:17:53.340Z,1.16
2018-02-22T21:20:20.823Z,1.17
2018-02-22T21:22:48.296Z,1.16
2018-02-22T21:25:15.734Z,1.09
2018-02-22T21:27:43.285Z,1.04
2018-02-22T21:30:10.788Z,1.05
2018-02-22T21:32:38.239Z,1.06
2018-02-22T21:35:05.703Z,1.08
2018-02-22T21:37:33.195Z,1.09
2018-02-22T21:40:00.723Z,1.04
2018-02-22T21:42:28.106Z,1.07
2018-02-22T21:44:55.596Z,1.11
2018-02-22T21:47:23.128Z,1.11
2018-02-22T21:49:50.788Z,0.98
2018-02-22T21:52:21.959Z,0.99
2018-02-22T21:54:49.651Z,1.03
2018-02-22T21:57:17.119Z,0.99
2018-02-22T21:59:44.647Z,1.03
2018-02-22T22:02:12.120Z,0.92
2018-02-22T22:04:39.628Z,0.92
2018-02-22T22:07:07.040Z,0.98
2018-02-22T22:09:34.501Z,0.98
2018-02-22T22:12:01.986Z,1.01
2018-02-22T22:14:29.471Z,1.01
2018-02-22T22:16:57.160Z,0.98
2018-02-22T22:19:24.703Z,0.97
2018-02-22T22:21:52.356Z,1.01
2018-02-22T22:24:19.799Z,1.02
2018-02-22T22:26:48.263Z,1.03
2018-02-22T22:29:15.707Z,1.04
2018-02-22T22:31:43.158Z,1.03
2018-02-22T22:34:10.730Z,0.98
2018-02-22T22:36:38.171Z,0.96
2018-02-22T22:39:05.631Z,1.00
2018-02-22T22:41:33.072Z,0.94
2018-02-22T22:44:00.617Z,1.01
2018-02-22T22:46:28.023Z,0.99
2018-02-22T22:48:55.479Z,0.98
2018-02-22T22:51:22.928Z,0.90
2018-02-22T22:53:50.381Z,0.97
2018-02-22T22:56:17.914Z,1.00
2018-02-22T22:58:45.388Z,0.98
2018-02-22T23:01:12.839Z,0.93
2018-02-22T23:03:40.293Z,0.97
2018-02-22T23:06:07.760Z,0.98
2018-02-22T23:08:35.221Z,0.91
2018-02-22T23:11:02.691Z,0.89
2018-02-22T23:13:30.165Z,0.88
2018-02-22T23:15:57.619Z,0.96
2018-02-22T23:18:25.168Z,0.95
2018-02-22T23:20:52.639Z,0.98
2018-02-22T23:23:20.112Z,0.95
2018-02-22T23:25:47.577Z,1.06
2018-02-22T23:28:15.120Z,1.04
2018-02-22T23:30:42.602Z,0.88
2018-02-22T23:33:10.074Z,0.90
2018-02-22T23:35:37.567Z,0.87
2018-02-22T23:38:06.468Z,0.86
2018-02-22T23:40:34.426Z,0.80
2018-02-22T23:43:01.926Z,0.79
2018-02-22T23:45:29.422Z,0.81
2018-02-22T23:47:56.892Z,0.71
2018-02-22T23:50:24.363Z,0.65
2018-02-22T23:52:51.810Z,0.64
2018-02-22T23:55:19.274Z,0.65
2018-02-22T23:57:46.852Z,0.63
